Time;durP1;ratioP1;P1;durP2;ratioP2;P2;SDS_P1;SDS_P2;PMS_P1;PMS_P2;Temp;Humidity;BMP_temperature;BMP_pressure;BME280_temperature;BME280_humidity;BME280_pressure;Samples;Min_cycle;Max_cycle;Signal;HPM_P1;HPM_P2
2022/04/16 00:00:46;;;;;;;;;;;;;;;7.11;86.22;103057.91;5066826;28;20426;-72
2022/04/16 00:03:12;;;;;;;;;;;;;;;7.10;85.83;103052.66;5085299;28;19924;-72
2022/04/16 00:05:37;;;;;;;;;;;;;;;7.07;86.27;103055.88;5083394;28;19920;-72
2022/04/16 00:08:09;;;;;;;;;;;;;;;7.09;85.92;103056.00;5078411;28;19924;-72
2022/04/16 00:10:35;;;;;;;;;;;;;;;7.07;86.34;103045.66;5085284;28;19963;-72
2022/04/16 00:13:00;;;;;;;;;;;;;;;7.06;86.04;103048.09;5102458;28;20341;-73
2022/04/16 00:15:26;;;;;;;;;;;;;;;7.04;86.25;103047.06;5087907;28;19962;-72
2022/04/16 00:17:52;;;;;;;;;;;;;;;7.02;86.48;103049.53;5090013;28;20379;-72
2022/04/16 00:20:17;;;;;;;;;;;;;;;6.99;86.80;103046.75;5090691;28;19969;-72
2022/04/16 00:22:42;;;;;;;;;;;;;;;7.00;85.72;103051.06;5088883;28;20348;-72
2022/04/16 00:25:08;;;;;;;;;;;;;;;6.96;86.39;103052.50;5087855;28;19924;-72
2022/04/16 00:27:34;;;;;;;;;;;;;;;6.95;86.22;103049.81;5094994;28;20011;-73
2022/04/16 00:29:59;;;;;;;;;;;;;;;6.92;86.79;103055.59;5082805;28;20019;-72
2022/04/16 00:32:25;;;;;;;;;;;;;;;6.89;87.18;103052.78;5082764;28;20011;-73
2022/04/16 00:34:50;;;;;;;;;;;;;;;6.86;87.48;103057.69;5087262;28;20257;-72
2022/04/16 00:37:15;;;;;;;;;;;;;;;6.82;87.25;103052.22;5084615;28;19931;-72
2022/04/16 00:39:41;;;;;;;;;;;;;;;6.77;87.73;103054.41;5088391;28;19924;-72
2022/04/16 00:42:06;;;;;;;;;;;;;;;6.73;88.34;103052.34;5089851;28;19934;-73
2022/04/16 00:44:31;;;;;;;;;;;;;;;6.69;87.93;103058.91;5088677;28;19928;-72
2022/04/16 00:46:57;;;;;;;;;;;;;;;6.66;88.30;103060.31;5086838;28;20006;-72
2022/04/16 00:49:22;;;;;;;;;;;;;;;6.64;88.24;103064.44;5092455;28;20011;-72
2022/04/16 00:51:48;;;;;;;;;;;;;;;6.59;89.32;103060.63;5086202;28;19934;-73
2022/04/16 00:54:13;;;;;;;;;;;;;;;6.55;89.03;103054.38;5083661;28;20265;-73
2022/04/16 00:56:39;;;;;;;;;;;;;;;6.51;89.86;103056.56;5086630;28;19916;-73
2022/04/16 00:59:04;;;;;;;;;;;;;;;6.48;90.09;103059.75;5091665;28;19915;-73
2022/04/16 01:01:30;;;;;;;;;;;;;;;6.48;88.83;103061.44;5085180;28;19920;-74
2022/04/16 01:03:56;;;;;;;;;;;;;;;6.46;89.64;103056.19;5089824;28;19920;-73
2022/04/16 01:06:21;;;;;;;;;;;;;;;6.43;90.34;103061.06;5085209;28;19920;-73
2022/04/16 01:08:46;;;;;;;;;;;;;;;6.39;90.72;103056.50;5068227;28;19927;-72
2022/04/16 01:11:12;;;;;;;;;;;;;;;6.37;90.63;103061.50;5089084;28;19924;-72
2022/04/16 01:13:38;;;;;;;;;;;;;;;6.36;90.37;103056.22;5085403;28;19917;-72
2022/04/16 01:16:04;;;;;;;;;;;;;;;6.31;90.49;103062.63;5088498;28;19921;-74
2022/04/16 01:18:29;;;;;;;;;;;;;;;6.27;91.01;103058.94;5100226;27;19920;-72
2022/04/16 01:20:55;;;;;;;;;;;;;;;6.23;90.24;103059.47;5088158;28;20392;-73
2022/04/16 01:23:20;;;;;;;;;;;;;;;6.18;91.60;103065.84;5092548;28;19923;-72
2022/04/16 01:25:46;;;;;;;;;;;;;;;6.17;92.06;103071.75;5092877;28;20338;-72
2022/04/16 01:28:12;;;;;;;;;;;;;;;6.16;91.41;103064.84;5088087;28;19920;-73
2022/04/16 01:30:37;;;;;;;;;;;;;;;6.11;91.89;103078.91;5086361;28;20035;-72
2022/04/16 01:33:03;;;;;;;;;;;;;;;6.10;91.57;103082.25;5084016;28;21431;-72
2022/04/16 01:35:29;;;;;;;;;;;;;;;6.09;92.44;103075.34;5087045;28;19916;-72
2022/04/16 01:37:54;;;;;;;;;;;;;;;6.07;93.75;103077.78;5087511;28;19959;-72
2022/04/16 01:40:25;;;;;;;;;;;;;;;6.09;93.07;103081.34;5088182;28;19920;-72
2022/04/16 01:42:51;;;;;;;;;;;;;;;6.08;93.64;103081.22;5088300;28;19939;-72
2022/04/16 01:45:18;;;;;;;;;;;;;;;6.07;93.20;103085.44;5091407;28;20626;-72
2022/04/16 01:47:43;;;;;;;;;;;;;;;6.07;93.47;103085.44;5087578;28;19920;-72
2022/04/16 01:50:09;;;;;;;;;;;;;;;6.08;93.58;103092.34;5087670;28;19926;-73
2022/04/16 01:52:38;;;;;;;;;;;;;;;6.04;94.13;103092.84;5084398;28;19969;-72
2022/04/16 01:55:04;;;;;;;;;;;;;;;6.03;93.18;103085.06;5089902;28;19923;-73
2022/04/16 01:57:29;;;;;;;;;;;;;;;6.02;94.44;103096.94;5085704;28;19943;-73
2022/04/16 01:59:55;;;;;;;;;;;;;;;6.01;93.96;103078.94;5085282;28;20295;-72
2022/04/16 02:02:20;;;;;;;;;;;;;;;6.00;94.16;103083.13;5087217;28;19924;-75
2022/04/16 02:04:46;;;;;;;;;;;;;;;5.98;93.91;103083.78;5089096;28;19923;-72
2022/04/16 02:07:11;;;;;;;;;;;;;;;5.95;94.92;103084.44;5086819;28;19930;-72
2022/04/16 02:09:37;;;;;;;;;;;;;;;5.97;94.60;103089.66;5110967;27;19923;-73
2022/04/16 02:12:02;;;;;;;;;;;;;;;5.93;95.71;103082.50;5085050;28;19964;-73
2022/04/16 02:14:27;;;;;;;;;;;;;;;5.93;95.32;103079.97;5089161;28;19920;-73
2022/04/16 02:16:53;;;;;;;;;;;;;;;5.90;95.56;103076.38;5088663;28;20410;-73
2022/04/16 02:19:19;;;;;;;;;;;;;;;5.89;95.24;103077.13;5086815;28;19928;-72
2022/04/16 02:21:44;;;;;;;;;;;;;;;5.87;95.99;103078.66;5071509;28;20406;-72
2022/04/16 02:24:10;;;;;;;;;;;;;;;5.83;95.82;103075.75;5084141;28;19973;-72
2022/04/16 02:26:36;;;;;;;;;;;;;;;5.80;96.20;103078.91;5091333;28;19961;-72
2022/04/16 02:29:02;;;;;;;;;;;;;;;5.76;95.87;103075.97;5090613;28;19970;-72
2022/04/16 02:31:27;;;;;;;;;;;;;;;5.72;96.74;103071.41;5089519;28;19916;-72
2022/04/16 02:33:55;;;;;;;;;;;;;;;5.71;96.26;103082.38;5082758;28;19920;-72
2022/04/16 02:36:20;;;;;;;;;;;;;;;5.68;95.38;103082.13;5083452;28;19920;-72
2022/04/16 02:38:47;;;;;;;;;;;;;;;5.62;97.01;103085.06;5085937;28;19921;-72
2022/04/16 02:41:13;;;;;;;;;;;;;;;5.60;97.23;103089.16;5088950;28;20384;-72
2022/04/16 02:43:38;;;;;;;;;;;;;;;5.57;96.33;103091.44;5090011;28;19928;-72
2022/04/16 02:48:48;;;;;;;;;;;;;;;5.49;97.75;103084.78;5087637;28;20359;-73
2022/04/16 02:51:13;;;;;;;;;;;;;;;5.47;96.99;103094.88;5071052;28;19928;-72
2022/04/16 02:53:39;;;;;;;;;;;;;;;5.42;97.73;103093.59;5086198;28;20010;-72
2022/04/16 02:56:04;;;;;;;;;;;;;;;5.38;97.92;103096.66;5087809;28;19920;-72
2022/04/16 02:58:29;;;;;;;;;;;;;;;5.37;97.85;103100.84;5083295;28;20046;-74
2022/04/16 03:00:55;;;;;;;;;;;;;;;5.34;99.17;103108.28;5083441;28;19920;-72
2022/04/16 03:03:22;;;;;;;;;;;;;;;5.32;98.15;103103.78;5083323;28;19971;-72
2022/04/16 03:05:47;;;;;;;;;;;;;;;5.28;97.84;103102.66;5085825;28;20417;-72
2022/04/16 03:08:13;;;;;;;;;;;;;;;5.25;96.93;103104.91;5083502;28;19924;-72
2022/04/16 03:10:39;;;;;;;;;;;;;;;5.20;95.68;103107.84;5086376;28;19966;-72
2022/04/16 03:13:04;;;;;;;;;;;;;;;5.13;97.84;103105.53;5087447;28;20316;-72
2022/04/16 03:18:14;;;;;;;;;;;;;;;5.14;100.00;103108.19;5089559;28;20307;-72
2022/04/16 03:20:40;;;;;;;;;;;;;;;5.12;100.00;103107.19;5083100;28;19920;-72
2022/04/16 03:23:06;;;;;;;;;;;;;;;5.13;99.33;103105.53;5084945;28;19993;-72
2022/04/16 03:25:32;;;;;;;;;;;;;;;5.11;100.00;103108.84;5088108;28;20374;-73
2022/04/16 03:27:58;;;;;;;;;;;;;;;5.09;100.00;103107.81;5081369;28;20345;-72
2022/04/16 03:30:24;;;;;;;;;;;;;;;5.09;99.87;103112.00;5087645;28;19924;-72
2022/04/16 03:32:50;;;;;;;;;;;;;;;5.05;100.00;103108.31;5085146;28;20010;-72
2022/04/16 03:35:17;;;;;;;;;;;;;;;5.00;99.52;103112.13;5086466;28;19956;-73
2022/04/16 03:37:42;;;;;;;;;;;;;;;4.97;99.40;103110.94;5086759;28;20291;-73
2022/04/16 03:40:08;;;;;;;;;;;;;;;4.94;98.61;103110.72;5084687;28;19928;-72
2022/04/16 03:42:33;;;;;;;;;;;;;;;4.88;100.00;103108.53;5086286;28;20423;-72
2022/04/16 03:45:00;;;;;;;;;;;;;;;4.93;100.00;103106.38;5078948;28;20024;-72
2022/04/16 03:47:25;;;;;;;;;;;;;;;4.94;100.00;103105.59;5083131;28;19916;-73
2022/04/16 03:49:51;;;;;;;;;;;;;;;4.92;100.00;103107.13;5087528;28;20360;-72
2022/04/16 03:52:16;;;;;;;;;;;;;;;4.87;100.00;103106.72;5090322;28;21103;-73
2022/04/16 04:00:11;;;;;;;;;;;;;;;4.90;100.00;103112.09;5089396;28;19966;-72
2022/04/16 04:02:38;;;;;;;;;;;;;;;4.92;100.00;103117.34;5090932;28;19928;-72
2022/04/16 04:05:03;;;;;;;;;;;;;;;4.91;100.00;103116.41;5085480;28;19924;-72
2022/04/16 04:07:29;;;;;;;;;;;;;;;4.91;100.00;103120.63;5090401;28;20310;-72
2022/04/16 04:09:54;;;;;;;;;;;;;;;4.86;100.00;103117.69;5088198;28;19924;-71
2022/04/16 04:12:19;;;;;;;;;;;;;;;4.83;100.00;103115.75;5091757;28;19919;-72
2022/04/16 04:14:45;;;;;;;;;;;;;;;4.85;100.00;103126.06;5090694;28;19948;-72
2022/04/16 04:17:11;;;;;;;;;;;;;;;4.87;100.00;103118.59;5092335;28;19951;-72
2022/04/16 04:19:41;;;;;;;;;;;;;;;4.87;100.00;103127.13;5089889;28;19916;-72
2022/04/16 04:22:07;;;;;;;;;;;;;;;4.83;100.00;103122.50;5087985;28;19916;-72
2022/04/16 04:24:33;;;;;;;;;;;;;;;4.81;100.00;103130.03;5090906;28;19931;-72
2022/04/16 04:26:59;;;;;;;;;;;;;;;4.81;100.00;103135.13;5090420;28;19920;-72
2022/04/16 04:29:25;;;;;;;;;;;;;;;4.78;100.00;103134.84;5091796;28;19928;-72
2022/04/16 04:31:50;;;;;;;;;;;;;;;4.79;100.00;103138.28;5089890;28;20339;-72
2022/04/16 04:34:15;;;;;;;;;;;;;;;4.77;100.00;103133.06;5089804;28;19931;-72
2022/04/16 04:36:40;;;;;;;;;;;;;;;4.76;100.00;103136.38;5086974;28;19954;-72
2022/04/16 04:39:06;;;;;;;;;;;;;;;4.78;100.00;103142.50;5088203;28;20015;-72
2022/04/16 04:41:31;;;;;;;;;;;;;;;4.78;100.00;103145.03;5089771;28;19966;-72
2022/04/16 04:43:57;;;;;;;;;;;;;;;4.78;100.00;103150.13;5087559;28;19928;-72
2022/04/16 04:46:22;;;;;;;;;;;;;;;4.79;100.00;103151.03;5080003;28;19961;-72
2022/04/16 04:48:47;;;;;;;;;;;;;;;4.79;100.00;103151.03;5088181;28;19961;-73
2022/04/16 04:51:12;;;;;;;;;;;;;;;4.78;100.00;103149.25;5082984;28;19962;-72
2022/04/16 04:53:38;;;;;;;;;;;;;;;4.78;100.00;103156.91;5084768;28;20015;-72
2022/04/16 04:56:03;;;;;;;;;;;;;;;4.79;100.00;103159.59;5093602;28;19924;-72
2022/04/16 04:58:29;;;;;;;;;;;;;;;4.76;100.00;103161.88;5070120;28;20459;-73
2022/04/16 05:00:54;;;;;;;;;;;;;;;4.76;100.00;103166.97;5085631;28;19986;-72
2022/04/16 05:03:19;;;;;;;;;;;;;;;4.77;100.00;103168.75;5067540;28;19931;-72
2022/04/16 05:05:44;;;;;;;;;;;;;;;4.76;100.00;103169.50;5094442;28;19916;-71
2022/04/16 05:08:10;;;;;;;;;;;;;;;4.77;100.00;103168.75;5094260;28;19954;-72
2022/04/16 05:10:36;;;;;;;;;;;;;;;4.82;100.00;103172.59;5089877;28;19974;-72
2022/04/16 05:13:01;;;;;;;;;;;;;;;4.92;100.00;103174.31;5086135;28;19924;-72
2022/04/16 05:15:26;;;;;;;;;;;;;;;5.04;100.00;103174.50;5089659;28;19920;-72
2022/04/16 05:17:51;;;;;;;;;;;;;;;5.17;100.00;103168.81;5085424;28;19928;-72
2022/04/16 05:20:17;;;;;;;;;;;;;;;5.33;100.00;103175.34;5092926;28;19935;-72
2022/04/16 05:22:42;;;;;;;;;;;;;;;5.59;100.00;103179.25;5085301;28;19920;-72
2022/04/16 05:25:08;;;;;;;;;;;;;;;5.87;100.00;103178.22;5094744;28;19931;-72
2022/04/16 05:27:34;;;;;;;;;;;;;;;6.13;99.71;103180.47;5094890;28;19920;-72
2022/04/16 05:30:22;;;;;;;;;;;;;;;6.39;97.00;103176.59;5095579;28;19920;-72
2022/04/16 05:32:49;;;;;;;;;;;;;;;6.57;96.74;103183.22;5080323;28;19928;-71
2022/04/16 05:35:15;;;;;;;;;;;;;;;6.85;94.72;103183.75;5088001;28;20018;-72
2022/04/16 05:37:40;;;;;;;;;;;;;;;7.04;93.01;103186.13;5086639;28;20018;-72
2022/04/16 05:40:06;;;;;;;;;;;;;;;7.20;92.71;103185.66;5085665;28;20291;-72
2022/04/16 05:42:31;;;;;;;;;;;;;;;7.48;91.40;103184.50;5087828;28;19916;-72
2022/04/16 05:45:01;;;;;;;;;;;;;;;7.75;88.83;103177.13;5086256;28;20345;-72
2022/04/16 05:47:26;;;;;;;;;;;;;;;7.90;89.23;103177.41;5084021;28;19912;-72
2022/04/16 05:49:52;;;;;;;;;;;;;;;8.19;85.95;103183.06;5092379;28;19926;-72
2022/04/16 05:52:18;;;;;;;;;;;;;;;8.27;86.50;103183.63;5071622;28;19927;-72
2022/04/16 05:54:43;;;;;;;;;;;;;;;8.54;85.28;103187.34;5086900;28;19939;-73
2022/04/16 05:57:09;;;;;;;;;;;;;;;8.69;85.24;103190.16;5095200;28;19916;-72
2022/04/16 05:59:35;;;;;;;;;;;;;;;8.86;84.77;103193.16;5088796;28;20358;-72
2022/04/16 06:02:00;;;;;;;;;;;;;;;9.00;83.74;103199.28;5083349;28;19943;-72
2022/04/16 06:04:25;;;;;;;;;;;;;;;9.43;81.05;103201.44;5085784;28;20418;-72
2022/04/16 06:06:51;;;;;;;;;;;;;;;9.56;80.15;103209.19;5087368;28;19950;-72
2022/04/16 06:09:16;;;;;;;;;;;;;;;9.68;79.80;103208.38;5086984;28;19975;-72
2022/04/16 06:11:42;;;;;;;;;;;;;;;9.86;79.86;103224.16;5085191;28;19920;-72
2022/04/16 06:14:08;;;;;;;;;;;;;;;9.92;80.45;103221.13;5087547;28;20365;-72
2022/04/16 06:16:33;;;;;;;;;;;;;;;10.32;77.50;103211.00;5085791;28;19920;-72
2022/04/16 06:18:58;;;;;;;;;;;;;;;10.56;77.13;103219.44;5087141;28;19928;-71
2022/04/16 06:21:23;;;;;;;;;;;;;;;11.00;74.99;103222.28;5086572;28;19926;-72
2022/04/16 06:23:49;;;;;;;;;;;;;;;11.27;73.98;103226.59;5082417;28;20495;-71
2022/04/16 06:26:14;;;;;;;;;;;;;;;11.22;73.69;103215.16;5085590;28;20338;-72
2022/04/16 06:28:39;;;;;;;;;;;;;;;11.59;72.02;103220.00;5086889;28;20014;-71
2022/04/16 06:31:04;;;;;;;;;;;;;;;11.86;70.14;103219.91;5065552;28;20001;-71
2022/04/16 06:33:30;;;;;;;;;;;;;;;11.79;69.88;103222.09;5088712;28;19939;-71
2022/04/16 06:35:55;;;;;;;;;;;;;;;11.65;70.65;103217.81;5084207;28;19924;-71
2022/04/16 06:38:20;;;;;;;;;;;;;;;12.00;69.98;103219.03;5086944;28;20101;-72
2022/04/16 06:40:46;;;;;;;;;;;;;;;12.34;68.46;103225.41;5084579;28;19928;-72
2022/04/16 06:43:11;;;;;;;;;;;;;;;12.69;67.66;103226.56;5069904;28;20007;-71
2022/04/16 06:45:36;;;;;;;;;;;;;;;13.05;66.90;103230.31;5086127;28;20064;-71
2022/04/16 06:48:02;;;;;;;;;;;;;;;13.50;64.00;103227.59;5086774;28;19927;-71
2022/04/16 06:50:28;;;;;;;;;;;;;;;13.78;62.76;103233.44;5083435;28;19927;-71
2022/04/16 06:52:56;;;;;;;;;;;;;;;14.08;62.11;103234.16;5088497;28;20335;-71
2022/04/16 06:55:21;;;;;;;;;;;;;;;13.92;62.11;103228.97;5081985;28;20027;-71
2022/04/16 06:57:46;;;;;;;;;;;;;;;14.13;61.73;103230.06;5080179;28;20030;-71
2022/04/16 07:00:12;;;;;;;;;;;;;;;14.66;60.01;103231.91;5081667;28;19920;-71
2022/04/16 07:02:39;;;;;;;;;;;;;;;15.06;57.85;103235.53;5086078;28;19924;-71
2022/04/16 07:05:05;;;;;;;;;;;;;;;15.48;56.68;103228.88;5082351;28;19970;-71
2022/04/16 07:07:30;;;;;;;;;;;;;;;15.76;57.50;103237.09;5084749;28;19920;-70
2022/04/16 07:09:56;;;;;;;;;;;;;;;16.15;54.63;103243.97;5085629;28;19948;-70
2022/04/16 07:12:21;;;;;;;;;;;;;;;16.29;53.58;103237.63;5087477;28;20126;-70
2022/04/16 07:14:46;;;;;;;;;;;;;;;16.44;53.11;103232.19;5086015;28;19958;-71
2022/04/16 07:17:11;;;;;;;;;;;;;;;16.71;52.83;103241.16;5085406;28;20007;-71
2022/04/16 07:19:37;;;;;;;;;;;;;;;16.85;52.65;103240.00;5083917;28;19916;-72
2022/04/16 07:22:02;;;;;;;;;;;;;;;16.98;50.79;103230.97;5081890;28;19935;-70
2022/04/16 07:24:28;;;;;;;;;;;;;;;16.83;51.20;103238.19;5089946;28;19924;-71
2022/04/16 07:26:54;;;;;;;;;;;;;;;16.65;50.82;103237.41;5092789;28;19928;-72
2022/04/16 07:29:23;;;;;;;;;;;;;;;16.25;51.60;103247.00;5087403;28;20344;-72
2022/04/16 07:31:48;;;;;;;;;;;;;;;16.35;52.11;103238.78;5089569;28;20292;-72
2022/04/16 07:34:13;;;;;;;;;;;;;;;16.73;51.30;103236.91;5089843;28;20188;-72
2022/04/16 07:36:39;;;;;;;;;;;;;;;17.31;50.47;103241.81;5087200;28;19998;-72
2022/04/16 07:39:04;;;;;;;;;;;;;;;17.88;49.15;103239.59;5091030;28;19924;-71
2022/04/16 07:41:29;;;;;;;;;;;;;;;18.08;47.37;103249.81;5088822;28;20371;-74
2022/04/16 07:43:55;;;;;;;;;;;;;;;18.22;48.39;103246.88;5085502;28;20007;-72
2022/04/16 07:46:22;;;;;;;;;;;;;;;18.57;45.13;103238.50;5086953;28;19920;-73
2022/04/16 07:48:47;;;;;;;;;;;;;;;18.68;45.73;103245.81;5088872;28;20033;-72
2022/04/16 07:51:13;;;;;;;;;;;;;;;18.87;44.81;103251.63;5086378;28;20372;-72
2022/04/16 07:53:38;;;;;;;;;;;;;;;19.10;44.46;103240.19;5090273;28;19928;-72
2022/04/16 07:56:03;;;;;;;;;;;;;;;19.32;44.75;103243.47;5089496;28;20004;-72
2022/04/16 07:58:29;;;;;;;;;;;;;;;19.13;44.02;103240.31;5087499;28;19916;-72
2022/04/16 08:00:54;;;;;;;;;;;;;;;18.78;44.43;103241.81;5090146;28;19920;-72
2022/04/16 08:03:19;;;;;;;;;;;;;;;18.67;45.08;103251.00;5065121;28;20537;-73
2022/04/16 08:05:44;;;;;;;;;;;;;;;18.50;45.20;103237.38;5085785;28;19964;-72
2022/04/16 08:08:10;;;;;;;;;;;;;;;18.64;45.23;103249.16;5088220;28;19921;-72
2022/04/16 08:10:37;;;;;;;;;;;;;;;19.17;44.90;103243.88;5090580;28;19924;-73
2022/04/16 08:13:02;;;;;;;;;;;;;;;19.27;43.68;103241.59;5092966;28;19955;-74
2022/04/16 08:15:28;;;;;;;;;;;;;;;19.15;43.95;103243.84;5087837;28;19951;-72
2022/04/16 08:17:53;;;;;;;;;;;;;;;19.17;43.16;103247.41;5088636;28;19920;-72
2022/04/16 08:20:18;;;;;;;;;;;;;;;19.58;42.20;103250.34;5089224;28;19927;-72
2022/04/16 08:22:46;;;;;;;;;;;;;;;19.59;41.82;103246.00;5080867;28;20249;-72
2022/04/16 08:27:49;;;;;;;;;;;;;;;19.66;42.13;103246.25;5087933;28;19916;-72
2022/04/16 08:30:15;;;;;;;;;;;;;;;19.87;41.53;103250.28;5088952;28;19931;-72
2022/04/16 08:32:41;;;;;;;;;;;;;;;20.04;40.67;103249.91;5086591;28;19959;-72
2022/04/16 08:35:08;;;;;;;;;;;;;;;20.27;41.13;103252.25;5082465;28;20352;-72
2022/04/16 08:37:33;;;;;;;;;;;;;;;20.61;40.31;103252.25;5083453;28;20046;-71
2022/04/16 08:40:00;;;;;;;;;;;;;;;21.54;38.13;103256.16;5087404;28;20031;-71
2022/04/16 08:42:25;;;;;;;;;;;;;;;21.74;39.25;103247.81;5083087;28;19967;-72
2022/04/16 08:44:50;;;;;;;;;;;;;;;22.53;37.14;103248.38;5086648;28;20382;-70
2022/04/16 08:47:16;;;;;;;;;;;;;;;23.03;35.24;103249.19;5087032;28;20344;-72
2022/04/16 08:49:42;;;;;;;;;;;;;;;23.19;34.85;103251.16;5087700;28;19916;-70
2022/04/16 08:52:08;;;;;;;;;;;;;;;22.93;35.29;103250.81;5091131;28;19923;-71
2022/04/16 08:54:35;;;;;;;;;;;;;;;23.26;35.83;103242.50;5088510;28;19927;-71
2022/04/16 08:57:00;;;;;;;;;;;;;;;23.91;33.82;103246.81;5082808;28;19916;-73
2022/04/16 08:59:25;;;;;;;;;;;;;;;24.31;32.65;103252.41;5087420;28;19924;-72
2022/04/16 09:01:51;;;;;;;;;;;;;;;23.75;33.83;103253.63;5083717;28;20019;-72
2022/04/16 09:04:23;;;;;;;;;;;;;;;24.34;32.20;103245.50;5086765;28;19963;-72
2022/04/16 09:06:57;;;;;;;;;;;;;;;24.39;33.12;103242.91;5085578;28;19916;-71
2022/04/16 09:09:23;;;;;;;;;;;;;;;24.85;32.33;103244.09;5082539;28;19916;-71
2022/04/16 09:11:49;;;;;;;;;;;;;;;25.98;29.91;103249.00;5077553;28;19924;-72
2022/04/16 09:14:14;;;;;;;;;;;;;;;26.48;28.90;103247.31;5081826;28;19924;-72
2022/04/16 09:16:39;;;;;;;;;;;;;;;26.48;30.78;103242.91;5084349;28;20353;-72
2022/04/16 09:19:05;;;;;;;;;;;;;;;26.80;28.14;103247.25;5077568;28;19935;-73
2022/04/16 09:21:30;;;;;;;;;;;;;;;26.86;27.50;103237.56;5080863;28;19980;-72
2022/04/16 09:24:00;;;;;;;;;;;;;;;26.49;27.94;103244.66;5085769;28;19936;-72
2022/04/16 09:26:35;;;;;;;;;;;;;;;25.87;28.89;103242.84;5082096;28;19931;-74
2022/04/16 09:29:14;;;;;;;;;;;;;;;24.65;30.32;103239.59;5085370;28;20415;-72
2022/04/16 09:31:40;;;;;;;;;;;;;;;25.54;29.22;103243.56;5079743;28;19920;-71
2022/04/16 09:34:19;;;;;;;;;;;;;;;25.13;29.80;103232.03;5085391;28;19935;-72
2022/04/16 09:36:44;;;;;;;;;;;;;;;24.12;31.40;103240.88;5081750;28;19963;-73
2022/04/16 09:39:11;;;;;;;;;;;;;;;24.42;31.32;103227.13;5083781;28;19996;-71
2022/04/16 09:41:40;;;;;;;;;;;;;;;25.11;30.40;103232.84;5087299;28;19916;-72
2022/04/16 09:44:18;;;;;;;;;;;;;;;23.78;32.14;103235.28;5085327;28;19928;-71
2022/04/16 09:46:44;;;;;;;;;;;;;;;23.59;31.19;103227.13;5083412;28;19916;-71
2022/04/16 09:49:09;;;;;;;;;;;;;;;24.75;30.12;103215.94;5083832;28;19966;-71
2022/04/16 09:51:35;;;;;;;;;;;;;;;24.58;29.90;103229.03;5073143;28;20292;-71
2022/04/16 09:54:04;;;;;;;;;;;;;;;24.87;29.33;103216.06;5074676;28;19925;-70
2022/04/16 09:56:31;;;;;;;;;;;;;;;24.22;29.34;103220.81;5085056;28;20015;-71
2022/04/16 09:58:58;;;;;;;;;;;;;;;22.99;31.57;103219.41;5081841;28;19916;-71
2022/04/16 10:01:23;;;;;;;;;;;;;;;22.30;32.88;103225.28;5081168;28;19923;-71
2022/04/16 10:03:50;;;;;;;;;;;;;;;23.08;31.80;103221.25;5080380;28;19928;-72
2022/04/16 10:06:15;;;;;;;;;;;;;;;23.43;30.79;103219.09;5066298;28;19973;-71
2022/04/16 10:08:40;;;;;;;;;;;;;;;23.31;31.13;103218.94;5082375;28;19920;-70
2022/04/16 10:11:06;;;;;;;;;;;;;;;23.44;30.54;103226.09;5080878;28;19920;-70
2022/04/16 10:13:36;;;;;;;;;;;;;;;21.35;33.71;103226.06;5082632;28;19924;-71
2022/04/16 10:16:25;;;;;;;;;;;;;;;20.95;34.50;103212.97;5080789;28;19923;-72
2022/04/16 10:18:50;;;;;;;;;;;;;;;19.94;35.49;103218.28;5080049;28;19916;-70
2022/04/16 10:21:16;;;;;;;;;;;;;;;19.95;35.73;103206.97;5082286;28;19928;-71
2022/04/16 10:23:42;;;;;;;;;;;;;;;21.38;33.69;103212.19;5081272;28;19934;-70
2022/04/16 10:26:11;;;;;;;;;;;;;;;23.75;30.31;103213.34;5079689;28;19916;-70
2022/04/16 10:28:38;;;;;;;;;;;;;;;25.04;27.44;103216.13;5084909;28;19969;-73
2022/04/16 10:31:04;;;;;;;;;;;;;;;24.90;27.65;103216.94;5086006;28;20303;-73
2022/04/16 10:33:29;;;;;;;;;;;;;;;25.65;26.10;103216.38;5074478;28;19916;-71
2022/04/16 10:35:56;;;;;;;;;;;;;;;25.78;25.87;103219.97;5078927;28;19927;-71
2022/04/16 10:38:22;;;;;;;;;;;;;;;26.66;23.53;103216.50;5079828;28;19923;-71
2022/04/16 10:40:57;;;;;;;;;;;;;;;26.22;24.22;103215.63;5082932;28;19965;-71
2022/04/16 10:43:25;;;;;;;;;;;;;;;25.61;25.75;103213.75;5081670;28;19921;-71
2022/04/16 10:45:59;;;;;;;;;;;;;;;24.32;26.74;103220.88;5098393;28;19969;-71
2022/04/16 10:48:25;;;;;;;;;;;;;;;24.49;26.80;103218.41;5082553;28;20003;-71
2022/04/16 10:50:52;;;;;;;;;;;;;;;24.90;25.93;103212.56;5084183;28;19943;-72
2022/04/16 10:53:25;;;;;;;;;;;;;;;24.82;25.38;103215.16;5078267;28;19950;-71
2022/04/16 10:55:51;;;;;;;;;;;;;;;24.07;26.79;103209.28;5079378;28;20066;-72
2022/04/16 10:58:28;;;;;;;;;;;;;;;24.36;26.53;103216.56;5076149;28;19952;-73
2022/04/16 11:01:04;;;;;;;;;;;;;;;25.43;26.86;103206.69;5081109;28;19943;-72
2022/04/16 11:03:32;;;;;;;;;;;;;;;26.48;23.70;103198.06;5079045;28;19974;-72
2022/04/16 11:06:03;;;;;;;;;;;;;;;26.27;23.69;103204.19;5082747;28;20023;-73
2022/04/16 11:08:29;;;;;;;;;;;;;;;26.33;23.49;103203.28;5070931;28;19949;-73
2022/04/16 11:10:56;;;;;;;;;;;;;;;25.94;24.97;103207.69;5081455;28;20014;-72
2022/04/16 11:13:22;;;;;;;;;;;;;;;25.35;24.27;103208.38;5078768;28;20003;-72
2022/04/16 11:15:47;;;;;;;;;;;;;;;24.04;25.92;103219.78;5078639;28;20007;-72
2022/04/16 11:18:15;;;;;;;;;;;;;;;22.92;27.63;103212.28;5078073;28;20377;-72
2022/04/16 11:20:43;;;;;;;;;;;;;;;23.43;27.55;103197.22;5076055;28;19924;-71
2022/04/16 11:23:11;;;;;;;;;;;;;;;24.37;26.18;103202.53;5079203;28;19924;-71
2022/04/16 11:34:14;;;;;;;;;;;;;;;24.41;26.17;103219.25;5078165;28;19935;-73
2022/04/16 11:36:40;;;;;;;;;;;;;;;23.45;27.81;103196.34;5081312;28;19920;-71
2022/04/16 11:39:05;;;;;;;;;;;;;;;24.77;25.61;103193.19;5081301;28;20316;-72
2022/04/16 11:41:30;;;;;;;;;;;;;;;24.60;25.60;103184.31;5060663;28;20391;-71
2022/04/16 11:43:55;;;;;;;;;;;;;;;23.87;27.33;103200.34;5079107;28;19932;-73
2022/04/16 11:46:22;;;;;;;;;;;;;;;23.87;27.51;103197.69;5082801;28;19931;-72
2022/04/16 11:48:48;;;;;;;;;;;;;;;23.54;27.23;103190.34;5079533;28;19928;-72
2022/04/16 11:51:14;;;;;;;;;;;;;;;23.22;27.86;103182.94;5078242;28;20461;-72
2022/04/16 11:53:43;;;;;;;;;;;;;;;23.82;28.16;103181.00;5079724;28;20022;-72
2022/04/16 11:56:09;;;;;;;;;;;;;;;24.83;26.46;103187.06;5078899;28;19923;-72
2022/04/16 11:58:35;;;;;;;;;;;;;;;24.70;26.75;103194.03;5080448;28;19924;-72
2022/04/16 12:01:02;;;;;;;;;;;;;;;24.37;26.06;103184.13;5076616;28;19920;-72
2022/04/16 12:03:38;;;;;;;;;;;;;;;24.82;26.11;103175.69;5083061;28;19939;-71
2022/04/16 12:06:07;;;;;;;;;;;;;;;24.70;26.06;103180.88;5077762;28;19951;-72
2022/04/16 12:08:32;;;;;;;;;;;;;;;23.53;27.46;103186.78;5079422;28;19920;-73
2022/04/16 12:10:59;;;;;;;;;;;;;;;23.24;28.74;103180.34;5077978;28;19923;-73
2022/04/16 12:13:33;;;;;;;;;;;;;;;23.13;28.17;103182.84;5084502;28;19920;-72
2022/04/16 12:16:02;;;;;;;;;;;;;;;23.32;28.29;103178.69;5079028;28;19916;-71
2022/04/16 12:18:33;;;;;;;;;;;;;;;23.59;27.11;103178.09;5078866;28;19975;-71
2022/04/16 12:21:05;;;;;;;;;;;;;;;23.02;27.99;103177.44;5080907;28;19920;-72
2022/04/16 12:23:30;;;;;;;;;;;;;;;23.18;28.40;103172.41;5081795;28;19956;-72
2022/04/16 12:26:12;;;;;;;;;;;;;;;23.91;27.20;103174.97;5084164;28;19947;-73
2022/04/16 12:28:39;;;;;;;;;;;;;;;24.35;26.33;103170.09;5081393;28;20026;-72
2022/04/16 12:31:04;;;;;;;;;;;;;;;24.46;26.96;103167.56;5099044;27;19923;-73
2022/04/16 12:33:29;;;;;;;;;;;;;;;24.88;26.23;103167.81;5082481;28;19916;-72
2022/04/16 12:35:56;;;;;;;;;;;;;;;24.73;25.86;103169.47;5083707;28;19924;-72
2022/04/16 12:38:22;;;;;;;;;;;;;;;25.56;24.44;103186.53;5084341;28;19926;-73
2022/04/16 12:40:47;;;;;;;;;;;;;;;24.51;25.16;103164.09;5100204;27;20386;-73
2022/04/16 12:43:12;;;;;;;;;;;;;;;23.95;26.30;103166.22;5079567;28;19932;-72
2022/04/16 12:45:37;;;;;;;;;;;;;;;24.12;25.11;103164.63;5082499;28;20384;-72
2022/04/16 12:48:03;;;;;;;;;;;;;;;23.69;25.76;103164.25;5081596;28;19963;-72
2022/04/16 12:53:35;;;;;;;5.93;4.75;;;;;;;21.89;28.70;103188.72;5073983;27;20196;-47
2022/04/16 12:56:00;;;;;;;6.47;4.45;;;;;;;20.85;30.16;103189.19;5063295;28;20036;-50
2022/04/16 12:58:26;;;;;;;5.32;4.20;;;;;;;20.02;32.02;103194.16;5067828;28;20300;-49